Time;durP1;ratioP1;P1;durP2;ratioP2;P2;SDS_P1;SDS_P2;PMS_P1;PMS_P2;Temp;Humidity;BMP_temperature;BMP_pressure;BME280_temperature;BME280_humidity;BME280_pressure;Samples;Min_cycle;Max_cycle;Signal;HPM_P1;HPM_P2
2022/03/15 00:02:23;;;;;;;38.50;15.80;;;;;;;4.17;53.72;101699.27;106373;1268;22521;-49
2022/03/15 00:04:56;;;;;;;39.20;16.40;;;;;;;4.20;53.40;101694.91;106183;1268;22685;-55
2022/03/15 00:07:28;;;;;;;44.00;18.80;;;;;;;4.22;53.22;101693.25;106157;1268;22541;-55
2022/03/15 00:10:00;;;;;;;36.40;16.00;;;;;;;4.24;53.25;101695.47;106210;1268;26708;-57
2022/03/15 00:12:33;;;;;;;36.20;16.10;;;;;;;4.25;53.32;101698.30;106354;1268;25226;-56
2022/03/15 00:15:08;;;;;;;38.30;17.80;;;;;;;4.27;53.61;101699.09;106317;1268;22879;-55
2022/03/15 00:17:41;;;;;;;42.20;18.30;;;;;;;4.28;53.65;101695.61;106315;1268;22538;-55
2022/03/15 00:20:18;;;;;;;44.00;16.60;;;;;;;4.29;53.92;101690.94;106384;1269;22600;-56
2022/03/15 00:22:50;;;;;;;35.70;15.50;;;;;;;4.33;54.05;101691.70;106419;1268;22583;-53
2022/03/15 00:25:22;;;;;;;37.80;15.60;;;;;;;4.35;54.17;101693.04;106219;1268;24215;-55
2022/03/15 00:27:55;;;;;;;40.90;17.50;;;;;;;4.36;54.07;101693.98;106501;1268;22522;-53
2022/03/15 00:30:27;;;;;;;40.50;16.90;;;;;;;4.37;54.17;101691.52;106307;1269;22604;-52
2022/03/15 00:32:59;;;;;;;38.10;17.20;;;;;;;4.38;53.72;101693.25;106374;1268;24092;-55
2022/03/15 00:35:31;;;;;;;40.10;16.80;;;;;;;4.40;54.26;101694.98;106369;1258;22544;-55
2022/03/15 00:38:03;;;;;;;39.80;16.10;;;;;;;4.41;54.38;101702.73;106065;1270;25220;-58
2022/03/15 00:40:35;;;;;;;36.10;15.20;;;;;;;4.43;54.77;101704.07;106139;1270;25330;-56
2022/03/15 00:43:06;;;;;;;38.60;16.00;;;;;;;4.45;55.11;101701.30;106208;1270;25518;-58
2022/03/15 00:45:38;;;;;;;35.10;15.80;;;;;;;4.48;55.39;101703.64;106197;1270;22515;-53
2022/03/15 00:48:11;;;;;;;39.70;15.60;;;;;;;4.53;55.28;101709.48;106350;1270;22503;-57
2022/03/15 00:50:42;;;;;;;36.60;14.40;;;;;;;4.56;55.29;101710.96;106275;1270;24232;-58
2022/03/15 00:53:14;;;;;;;33.00;15.40;;;;;;;4.59;55.57;101713.32;106654;1270;25296;-54
2022/03/15 00:55:46;;;;;;;35.40;15.10;;;;;;;4.61;55.34;101712.75;106158;1270;22557;-57
2022/03/15 00:58:18;;;;;;;36.70;16.60;;;;;;;4.64;55.76;101714.23;106249;1270;22544;-57
2022/03/15 01:00:50;;;;;;;36.60;16.50;;;;;;;4.66;55.55;101715.27;106184;1270;24297;-57
2022/03/15 01:03:22;;;;;;;34.40;15.00;;;;;;;4.66;55.76;101714.95;106222;1270;22524;-54
2022/03/15 01:05:54;;;;;;;40.20;16.90;;;;;;;4.67;56.15;101713.90;106159;1270;22528;-54
2022/03/15 01:08:26;;;;;;;40.10;17.50;;;;;;;4.68;56.26;101707.02;106180;1269;22644;-58
2022/03/15 01:10:58;;;;;;;41.10;17.50;;;;;;;4.69;56.06;101704.48;106304;1270;24441;-57
2022/03/15 01:13:30;;;;;;;35.10;16.00;;;;;;;4.70;56.15;101703.45;106162;1270;24180;-56
2022/03/15 01:16:01;;;;;;;34.30;15.50;;;;;;;4.73;56.05;101701.23;106036;1270;22561;-57
2022/03/15 01:18:34;;;;;;;34.70;17.40;;;;;;;4.73;56.41;101705.98;106302;1270;22681;-56
2022/03/15 01:21:05;;;;;;;39.70;16.40;;;;;;;4.76;56.17;101709.34;106168;1270;22540;-57
2022/03/15 01:23:37;;;;;;;39.60;17.70;;;;;;;4.76;55.66;101710.92;106123;1270;24303;-53
2022/03/15 01:26:10;;;;;;;37.60;17.70;;;;;;;4.78;55.87;101709.34;106174;1270;25195;-56
2022/03/15 01:28:42;;;;;;;34.50;16.70;;;;;;;4.79;56.73;101712.10;106224;1270;22607;-53
2022/03/15 01:31:14;;;;;;;41.70;17.50;;;;;;;4.81;56.70;101707.35;106167;1270;22631;-58
2022/03/15 01:33:46;;;;;;;46.50;18.70;;;;;;;4.83;57.07;101703.46;106289;1270;24602;-55
2022/03/15 01:36:18;;;;;;;37.00;17.20;;;;;;;4.84;57.24;101705.11;106117;1270;22698;-52
2022/03/15 01:38:52;;;;;;;44.80;17.70;;;;;;;4.86;57.42;101705.97;106269;1270;22765;-56
2022/03/15 01:41:24;;;;;;;44.80;18.10;;;;;;;4.88;57.80;101701.46;106213;1270;25417;-57
2022/03/15 01:43:55;;;;;;;42.40;17.10;;;;;;;4.90;57.83;101705.38;106106;1270;22705;-56
2022/03/15 01:46:26;;;;;;;38.50;15.80;;;;;;;4.91;57.77;101702.38;106190;1270;23481;-57
2022/03/15 01:48:59;;;;;;;38.20;16.80;;;;;;;4.94;58.11;101703.77;106260;1270;22573;-57
2022/03/15 01:51:31;;;;;;;35.50;16.50;;;;;;;4.97;58.11;101704.48;106344;1269;22552;-58
2022/03/15 01:54:03;;;;;;;35.70;15.10;;;;;;;5.00;58.12;101699.33;106144;1270;25329;-56
2022/03/15 01:56:35;;;;;;;30.90;13.80;;;;;;;5.01;58.17;101695.13;106082;1271;22571;-56
2022/03/15 01:59:06;;;;;;;33.90;15.50;;;;;;;5.03;58.39;101693.84;106218;1270;22549;-57
2022/03/15 02:01:39;;;;;;;34.10;15.80;;;;;;;5.05;58.50;101698.27;106229;1271;22551;-56
2022/03/15 02:04:12;;;;;;;38.80;15.30;;;;;;;5.07;58.50;101700.94;106266;1270;22595;-57
2022/03/15 02:06:44;;;;;;;32.00;15.10;;;;;;;5.09;58.53;101699.33;106187;1271;22547;-55
2022/03/15 02:09:17;;;;;;;34.60;13.80;;;;;;;5.11;58.24;101702.80;106196;1271;24263;-57
2022/03/15 02:11:48;;;;;;;32.30;13.90;;;;;;;5.13;58.32;101702.55;106096;1270;24228;-55
2022/03/15 02:14:21;;;;;;;34.80;16.00;;;;;;;5.16;58.25;101698.50;106076;1270;22581;-56
2022/03/15 02:16:53;;;;;;;32.20;14.40;;;;;;;5.19;58.56;101695.71;106194;1270;24023;-56
2022/03/15 02:19:27;;;;;;;31.20;14.30;;;;;;;5.21;58.55;101687.77;106034;1270;25488;-58
2022/03/15 02:21:59;;;;;;;30.90;13.80;;;;;;;5.25;58.63;101683.63;106031;1270;22531;-57
2022/03/15 02:24:31;;;;;;;31.50;13.90;;;;;;;5.28;58.66;101681.61;106329;1270;22614;-57
2022/03/15 02:27:03;;;;;;;31.50;12.80;;;;;;;5.29;58.25;101681.30;106244;1270;22653;-57
2022/03/15 02:29:34;;;;;;;30.20;12.30;;;;;;;5.31;58.39;101682.86;106243;1270;25424;-58
2022/03/15 02:32:07;;;;;;;32.10;14.80;;;;;;;5.32;58.33;101687.83;106256;1271;25367;-55
2022/03/15 02:34:39;;;;;;;31.50;12.50;;;;;;;5.33;58.02;101688.95;106345;1270;25369;-57
2022/03/15 02:37:10;;;;;;;31.60;13.30;;;;;;;5.33;58.30;101686.41;106294;1270;25381;-57
2022/03/15 02:39:42;;;;;;;30.60;12.60;;;;;;;5.33;58.42;101684.75;106305;1270;23023;-54
2022/03/15 02:42:13;;;;;;;31.10;14.50;;;;;;;5.33;58.61;101681.52;106203;1270;22544;-56
2022/03/15 02:44:45;;;;;;;30.30;11.80;;;;;;;5.33;58.54;101679.92;106072;1271;416856;-56
2022/03/15 02:47:17;;;;;;;32.60;12.20;;;;;;;5.31;58.46;101682.86;106173;1271;25372;-56
2022/03/15 02:49:48;;;;;;;32.00;11.90;;;;;;;5.30;58.73;101678.67;106160;1271;22526;-56
2022/03/15 02:52:21;;;;;;;29.10;10.70;;;;;;;5.29;59.00;101669.91;106249;1271;22549;-56
2022/03/15 02:54:52;;;;;;;27.30;10.50;;;;;;;5.27;59.23;101671.43;106295;1271;25404;-56
2022/03/15 02:57:24;;;;;;;30.70;10.50;;;;;;;5.25;59.44;101683.39;106204;1270;25254;-56
2022/03/15 02:59:56;;;;;;;30.90;11.00;;;;;;;5.23;59.29;101685.77;106078;1271;24394;-56
2022/03/15 03:02:28;;;;;;;29.70;10.40;;;;;;;5.22;59.37;101683.49;106329;1270;25266;-55
2022/03/15 03:05:00;;;;;;;23.00;9.60;;;;;;;5.21;59.65;101684.92;106309;1271;22554;-56
2022/03/15 03:07:34;;;;;;;23.70;8.80;;;;;;;5.19;59.81;101684.48;106195;1271;25133;-57
2022/03/15 03:10:07;;;;;;;26.40;8.60;;;;;;;5.17;59.62;101681.31;106343;1271;23870;-57
2022/03/15 03:12:41;;;;;;;21.90;7.40;;;;;;;5.16;59.80;101678.23;106455;1271;23005;-56
2022/03/15 03:15:13;;;;;;;24.80;8.60;;;;;;;5.13;59.83;101679.60;106208;1271;25533;-54
2022/03/15 03:17:45;;;;;;;21.50;7.80;;;;;;;5.11;59.57;101684.98;106280;1271;22538;-56
2022/03/15 03:20:21;;;;;;;22.20;8.30;;;;;;;5.09;59.63;101688.81;106238;1271;25538;-55
2022/03/15 03:22:55;;;;;;;23.20;8.80;;;;;;;5.08;59.66;101693.02;106263;1271;22553;-58
2022/03/15 03:25:30;;;;;;;22.50;8.40;;;;;;;5.06;59.58;101698.63;106285;1271;22559;-59
2022/03/15 03:28:03;;;;;;;21.00;7.30;;;;;;;5.04;59.60;101701.35;106239;1271;24247;-59
2022/03/15 03:30:37;;;;;;;23.50;8.70;;;;;;;5.02;59.36;101696.14;106211;1271;22538;-59
2022/03/15 03:33:08;;;;;;;25.40;8.40;;;;;;;4.99;59.85;101708.17;106211;1271;22642;-56
2022/03/15 03:35:40;;;;;;;25.80;8.70;;;;;;;4.95;59.97;101708.52;106049;1271;25431;-56
2022/03/15 03:38:12;;;;;;;23.90;7.80;;;;;;;4.90;59.76;101708.39;106212;1270;24278;-58
2022/03/15 03:40:44;;;;;;;21.60;8.50;;;;;;;4.88;59.57;101707.14;106021;1270;24028;-56
2022/03/15 03:43:16;;;;;;;22.40;8.00;;;;;;;4.87;59.73;101710.08;106107;1271;24676;-55
2022/03/15 03:45:48;;;;;;;23.50;8.40;;;;;;;4.85;59.67;101708.19;106235;1271;24234;-56
2022/03/15 03:48:19;;;;;;;24.70;9.20;;;;;;;4.83;59.55;101708.67;106167;1271;24427;-57
2022/03/15 03:50:51;;;;;;;33.20;9.30;;;;;;;4.81;59.82;101709.16;106345;1271;26622;-54
2022/03/15 03:53:24;;;;;;;26.40;8.40;;;;;;;4.79;60.43;101707.36;106163;1270;24249;-55
2022/03/15 03:55:55;;;;;;;25.10;8.90;;;;;;;4.75;60.91;101705.55;106227;1271;22532;-54
2022/03/15 03:58:27;;;;;;;26.40;8.00;;;;;;;4.72;61.36;101703.21;106089;1271;25369;-56
2022/03/15 04:00:58;;;;;;;22.70;7.30;;;;;;;4.70;61.53;101701.40;106115;1270;22525;-57
2022/03/15 04:03:31;;;;;;;19.10;7.30;;;;;;;4.69;61.54;101701.33;106304;1270;25257;-57
2022/03/15 04:06:03;;;;;;;20.90;7.20;;;;;;;4.69;61.93;101699.51;106057;1271;22528;-57
2022/03/15 04:08:34;;;;;;;18.90;7.10;;;;;;;4.68;62.24;101706.78;106150;1271;25422;-57
2022/03/15 04:11:06;;;;;;;18.80;6.60;;;;;;;4.69;62.50;101705.13;106096;1271;22540;-57
2022/03/15 04:13:40;;;;;;;17.00;5.50;;;;;;;4.69;62.70;101705.67;106169;1271;25313;-56
2022/03/15 04:16:12;;;;;;;17.70;6.10;;;;;;;4.71;62.70;101704.57;106019;1270;22493;-57
2022/03/15 04:18:44;;;;;;;17.90;6.10;;;;;;;4.73;62.87;101705.34;106202;1269;25559;-57
2022/03/15 04:21:15;;;;;;;17.90;5.90;;;;;;;4.74;63.09;101707.78;106107;1271;22527;-56
2022/03/15 04:23:47;;;;;;;16.10;5.50;;;;;;;4.75;62.99;101702.47;106302;1271;22614;-58
2022/03/15 04:26:19;;;;;;;15.10;5.60;;;;;;;4.78;63.26;101703.89;106204;1271;22570;-56
2022/03/15 04:28:50;;;;;;;16.80;5.00;;;;;;;4.78;63.50;101700.01;106287;1270;25314;-56
2022/03/15 04:31:22;;;;;;;18.50;6.00;;;;;;;4.79;63.68;101702.77;106418;1271;25317;-55
2022/03/15 04:33:53;;;;;;;17.00;4.50;;;;;;;4.80;63.66;101698.89;106289;1270;24292;-59
2022/03/15 04:36:24;;;;;;;14.60;5.00;;;;;;;4.81;63.82;101699.98;106275;1271;24212;-55
2022/03/15 04:38:56;;;;;;;17.30;5.80;;;;;;;4.81;63.79;101700.63;106057;1271;25274;-56
2022/03/15 04:41:28;;;;;;;19.40;5.80;;;;;;;4.83;63.83;101699.98;106135;1271;25391;-56
2022/03/15 04:43:59;;;;;;;20.70;5.10;;;;;;;4.85;63.99;101703.53;106369;1271;22545;-57
2022/03/15 04:46:31;;;;;;;19.10;6.20;;;;;;;4.87;64.06;101704.45;106370;1271;25301;-56
2022/03/15 04:49:03;;;;;;;16.50;5.40;;;;;;;4.90;64.02;101706.11;106446;1271;25266;-56
2022/03/15 04:51:35;;;;;;;15.40;4.80;;;;;;;4.93;64.13;101702.69;106575;1271;22664;-56
2022/03/15 04:54:07;;;;;;;17.80;5.20;;;;;;;4.93;64.33;101704.81;106529;1271;24245;-55
2022/03/15 04:56:39;;;;;;;19.90;5.60;;;;;;;4.95;64.38;101702.59;106460;1270;25406;-55
2022/03/15 04:59:10;;;;;;;20.60;5.70;;;;;;;4.97;64.54;101709.61;106477;1270;22527;-58
2022/03/15 05:01:42;;;;;;;16.80;5.80;;;;;;;4.99;64.41;101717.51;106593;1270;24183;-57
2022/03/15 05:04:13;;;;;;;18.20;4.70;;;;;;;5.02;64.50;101718.13;106377;1270;22468;-56
2022/03/15 05:06:45;;;;;;;17.20;4.70;;;;;;;5.04;64.63;101721.36;106461;1270;22760;-56
2022/03/15 05:09:16;;;;;;;19.20;5.70;;;;;;;5.06;64.53;101719.67;106541;1270;24301;-55
2022/03/15 05:11:49;;;;;;;17.20;5.50;;;;;;;5.07;64.58;101719.98;106554;1270;22472;-55
2022/03/15 05:14:20;;;;;;;16.40;4.80;;;;;;;5.08;64.71;101715.46;106512;1270;25159;-53
2022/03/15 05:16:52;;;;;;;15.30;5.90;;;;;;;5.10;64.89;101716.40;106517;1270;23922;-55
2022/03/15 05:19:23;;;;;;;18.70;6.50;;;;;;;5.12;64.88;101715.45;106564;1270;22466;-55
2022/03/15 05:21:55;;;;;;;23.00;6.60;;;;;;;5.14;64.86;101713.53;106570;1270;22601;-56
2022/03/15 05:24:27;;;;;;;18.10;6.30;;;;;;;5.14;64.86;101720.88;106677;1270;22540;-56
2022/03/15 05:26:59;;;;;;;24.20;8.00;;;;;;;5.15;64.98;101720.34;106622;1270;22551;-55
2022/03/15 05:29:31;;;;;;;18.90;6.70;;;;;;;5.17;65.10;101716.99;106632;1270;25424;-56
2022/03/15 05:32:03;;;;;;;20.00;7.30;;;;;;;5.17;65.13;101718.81;106562;1270;24284;-60
2022/03/15 05:34:36;;;;;;;21.40;7.10;;;;;;;5.19;65.26;101719.83;106363;1270;22610;-58
2022/03/15 05:37:08;;;;;;;27.00;7.40;;;;;;;5.21;65.16;101717.28;106469;1270;25463;-60
2022/03/15 05:39:40;;;;;;;23.10;6.50;;;;;;;5.24;65.29;101715.20;108818;1270;22616;-59
2022/03/15 05:42:13;;;;;;;19.60;6.80;;;;;;;5.26;65.41;101712.81;106743;1270;22846;-59
2022/03/15 05:44:45;;;;;;;18.40;7.30;;;;;;;5.27;65.40;101711.14;106473;1270;25605;-58
2022/03/15 05:47:17;;;;;;;19.30;6.50;;;;;;;5.29;65.40;101709.39;106434;1270;25455;-58
2022/03/15 05:49:49;;;;;;;20.90;6.60;;;;;;;5.31;65.28;101707.00;106413;1270;24241;-58
2022/03/15 05:52:21;;;;;;;22.00;6.60;;;;;;;5.33;65.44;101707.06;106408;1270;22536;-58
2022/03/15 05:54:53;;;;;;;21.30;7.20;;;;;;;5.34;65.43;101703.25;106418;1270;24787;-61
2022/03/15 05:57:25;;;;;;;21.60;7.60;;;;;;;5.37;65.36;101706.86;106734;1268;24335;-59
2022/03/15 05:59:57;;;;;;;18.10;7.00;;;;;;;5.39;65.36;101706.62;106487;1270;25348;-60
2022/03/15 06:02:28;;;;;;;20.70;7.60;;;;;;;5.41;65.42;101705.10;106526;1270;22517;-58
2022/03/15 06:05:01;;;;;;;21.90;6.80;;;;;;;5.41;65.33;101701.39;106263;1270;22558;-61
2022/03/15 06:07:33;;;;;;;22.10;7.50;;;;;;;5.39;65.34;101701.39;106084;1270;25303;-60
2022/03/15 06:10:08;;;;;;;22.10;7.30;;;;;;;5.37;65.39;101704.73;106039;1270;22544;-58
2022/03/15 06:12:40;;;;;;;20.60;7.70;;;;;;;5.37;65.31;101710.36;106079;1270;24763;-58
2022/03/15 06:15:13;;;;;;;18.40;7.30;;;;;;;5.37;65.36;101714.47;106063;1270;24578;-59
2022/03/15 06:17:49;;;;;;;23.20;7.80;;;;;;;5.37;65.41;101713.05;105946;1270;24270;-59
2022/03/15 06:20:21;;;;;;;23.50;7.40;;;;;;;5.36;65.36;101713.28;106056;1270;22545;-58
2022/03/15 06:22:53;;;;;;;23.90;7.20;;;;;;;5.34;65.58;101708.09;106033;1269;22529;-58
2022/03/15 06:25:26;;;;;;;22.10;8.50;;;;;;;5.33;65.67;101706.35;106111;1270;22550;-58
2022/03/15 06:27:57;;;;;;;26.40;8.20;;;;;;;5.33;65.72;101710.15;105975;1270;22529;-58
2022/03/15 06:30:30;;;;;;;26.60;9.00;;;;;;;5.33;65.76;101713.00;105896;1270;22577;-57
2022/03/15 06:33:01;;;;;;;22.40;9.30;;;;;;;5.35;65.86;101712.83;105934;1270;27397;-58
2022/03/15 06:35:33;;;;;;;24.00;8.10;;;;;;;5.37;65.88;101711.22;105905;1270;25472;-58
2022/03/15 06:38:05;;;;;;;27.90;9.50;;;;;;;5.39;66.02;101712.46;105985;1270;22570;-58
2022/03/15 06:40:40;;;;;;;21.00;7.80;;;;;;;5.43;66.00;101712.38;106023;1270;25315;-58
2022/03/15 06:43:13;;;;;;;22.40;8.20;;;;;;;5.46;66.10;101710.12;105976;1270;22519;-59
2022/03/15 06:45:46;;;;;;;19.70;7.80;;;;;;;5.50;66.06;101706.43;106068;1270;22534;-59
2022/03/15 06:48:21;;;;;;;20.90;7.60;;;;;;;5.54;66.18;101698.26;105941;1270;22579;-58
2022/03/15 06:50:53;;;;;;;24.50;8.40;;;;;;;5.57;66.21;101692.52;106090;1270;24394;-59
2022/03/15 06:53:26;;;;;;;26.00;8.30;;;;;;;5.62;66.41;101693.04;106042;1270;22794;-59
2022/03/15 06:55:58;;;;;;;31.10;8.60;;;;;;;5.69;66.45;101693.05;106075;1270;24285;-59
2022/03/15 06:58:30;;;;;;;25.60;8.80;;;;;;;5.76;66.53;101692.20;105948;1270;24244;-59
2022/03/15 07:01:01;;;;;;;24.40;7.40;;;;;;;5.85;66.60;101699.16;105946;1270;25430;-60
2022/03/15 07:03:33;;;;;;;20.90;8.40;;;;;;;5.93;66.52;101700.68;106329;1269;25699;-60
2022/03/15 07:06:06;;;;;;;28.00;8.50;;;;;;;6.02;66.58;101699.95;106028;1270;23019;-58
2022/03/15 07:08:37;;;;;;;26.80;8.50;;;;;;;6.12;66.64;101697.85;105988;1270;22574;-59
2022/03/15 07:11:09;;;;;;;26.30;9.00;;;;;;;6.20;66.59;101697.73;106068;1270;25353;-59
2022/03/15 07:13:41;;;;;;;25.60;9.20;;;;;;;6.28;66.38;101698.21;106054;1270;22544;-59
2022/03/15 07:16:12;;;;;;;24.30;8.60;;;;;;;6.35;66.49;101702.01;106164;1270;24370;-59
2022/03/15 07:18:43;;;;;;;25.20;8.10;;;;;;;6.44;66.39;101701.74;106141;1270;24352;-59
2022/03/15 07:21:15;;;;;;;22.10;8.50;;;;;;;6.52;66.44;101703.05;106084;1270;22537;-59
2022/03/15 07:23:46;;;;;;;26.30;8.60;;;;;;;6.60;66.40;101705.17;105775;1270;22593;-60
2022/03/15 07:26:18;;;;;;;24.00;8.80;;;;;;;6.69;66.36;101704.27;105997;1270;22555;-58
2022/03/15 07:28:49;;;;;;;26.80;8.80;;;;;;;6.78;66.29;101706.52;105947;1269;22603;-59
2022/03/15 07:31:21;;;;;;;23.90;8.50;;;;;;;6.89;66.35;101706.52;105834;1270;24357;-59
2022/03/15 07:33:52;;;;;;;27.30;8.60;;;;;;;7.00;66.16;101704.92;106071;1270;22537;-58
2022/03/15 07:36:24;;;;;;;27.40;8.80;;;;;;;7.10;66.04;101701.84;106083;1270;22574;-59
2022/03/15 07:38:55;;;;;;;26.00;9.30;;;;;;;7.20;66.03;101705.66;106051;1270;24236;-60
2022/03/15 07:41:27;;;;;;;24.90;8.60;;;;;;;7.31;65.89;101710.16;106021;1268;22616;-58
2022/03/15 07:44:01;;;;;;;27.10;8.90;;;;;;;7.41;65.80;101706.04;106240;1270;22612;-59
2022/03/15 07:46:34;;;;;;;22.80;8.00;;;;;;;7.50;65.72;101707.06;106096;1270;22651;-60
2022/03/15 07:49:06;;;;;;;22.80;8.40;;;;;;;7.60;65.64;101707.06;106280;1270;22531;-60
2022/03/15 07:51:39;;;;;;;22.40;7.80;;;;;;;7.67;65.47;101706.69;106084;1270;24428;-59
2022/03/15 07:54:10;;;;;;;22.00;8.00;;;;;;;7.74;65.55;101708.23;106192;1270;23945;-60
2022/03/15 07:56:43;;;;;;;26.20;8.10;;;;;;;7.84;65.50;101709.31;105955;1270;22713;-61
2022/03/15 07:59:14;;;;;;;24.30;9.90;;;;;;;7.94;65.40;101707.71;106119;1270;24735;-59
2022/03/15 08:01:47;;;;;;;26.80;9.60;;;;;;;8.02;65.30;101702.45;108080;1270;22906;-61
2022/03/15 08:04:18;;;;;;;24.30;8.20;;;;;;;8.12;65.18;101702.20;108203;1270;25320;-60
2022/03/15 08:06:50;;;;;;;24.50;8.80;;;;;;;8.23;65.10;101701.11;106533;1270;24240;-60
2022/03/15 08:09:23;;;;;;;21.70;7.90;;;;;;;8.35;64.97;101695.65;106346;1270;25322;-60
2022/03/15 08:11:55;;;;;;;21.60;6.60;;;;;;;8.45;64.76;101696.88;106118;1270;22640;-60
2022/03/15 08:14:27;;;;;;;21.00;6.60;;;;;;;8.54;64.71;101698.98;106017;1270;22531;-60
2022/03/15 08:16:59;;;;;;;21.60;7.90;;;;;;;8.64;64.61;101700.67;106080;1269;22565;-59
2022/03/15 08:19:31;;;;;;;21.20;7.60;;;;;;;8.74;64.58;101702.27;106202;1270;25480;-59
2022/03/15 08:22:04;;;;;;;23.70;6.80;;;;;;;8.85;64.53;101700.38;106061;1270;22706;-57
2022/03/15 08:24:36;;;;;;;19.70;6.90;;;;;;;8.96;64.56;101697.73;106168;1270;24272;-58
2022/03/15 08:27:08;;;;;;;20.80;6.70;;;;;;;9.05;64.38;101692.67;106530;1269;22702;-57
2022/03/15 08:29:41;;;;;;;19.50;6.80;;;;;;;9.12;64.40;101685.17;106119;1270;22576;-58
2022/03/15 08:32:14;;;;;;;23.50;8.10;;;;;;;9.23;64.43;101685.00;107982;1271;22741;-59
2022/03/15 08:34:46;;;;;;;21.20;7.50;;;;;;;9.35;64.15;101683.19;106084;1270;22521;-59
2022/03/15 08:37:17;;;;;;;22.80;7.70;;;;;;;9.44;63.98;101682.63;106051;1270;25248;-59
2022/03/15 08:39:49;;;;;;;22.30;7.60;;;;;;;9.53;64.01;101683.44;105996;1270;22625;-58
2022/03/15 08:42:21;;;;;;;24.60;7.80;;;;;;;9.63;63.91;101679.75;105998;1270;24429;-58
2022/03/15 08:44:53;;;;;;;23.90;9.40;;;;;;;9.70;63.73;101676.16;106303;1270;22555;-59
2022/03/15 08:47:24;;;;;;;28.40;9.70;;;;;;;9.75;63.57;101674.79;106165;1270;22788;-58
2022/03/15 08:49:56;;;;;;;27.20;9.20;;;;;;;9.83;63.59;101670.92;106011;1270;22596;-59
2022/03/15 08:52:28;;;;;;;22.00;7.90;;;;;;;9.91;63.51;101664.09;106044;1270;22684;-58
2022/03/15 08:55:02;;;;;;;24.90;8.80;;;;;;;10.00;63.27;101660.91;106247;1270;24381;-59
2022/03/15 08:57:34;;;;;;;24.80;8.50;;;;;;;10.05;62.92;101657.27;106236;1270;22544;-60
2022/03/15 09:00:08;;;;;;;23.20;7.90;;;;;;;10.07;62.73;101654.09;106095;1270;23425;-60
2022/03/15 09:02:40;;;;;;;24.60;9.50;;;;;;;10.10;62.91;101654.66;106354;1270;25397;-59
2022/03/15 09:05:13;;;;;;;26.00;10.30;;;;;;;10.20;62.85;101655.67;106235;1270;22547;-60
2022/03/15 09:07:50;;;;;;;24.90;9.00;;;;;;;10.28;62.76;101652.63;106398;1270;24382;-61
2022/03/15 09:10:23;;;;;;;27.40;10.10;;;;;;;10.36;62.64;101647.53;106142;1269;22640;-60
2022/03/15 09:12:55;;;;;;;24.60;9.40;;;;;;;10.46;62.63;101647.77;106852;1270;23974;-60
2022/03/15 09:15:29;;;;;;;27.20;8.40;;;;;;;10.56;62.41;101647.64;106464;1270;22564;-60
2022/03/15 09:18:02;;;;;;;24.20;10.00;;;;;;;10.68;62.26;101651.13;106536;1270;25376;-60
2022/03/15 09:20:33;;;;;;;26.30;10.70;;;;;;;10.73;61.96;101648.18;106451;1270;24291;-60
2022/03/15 09:23:06;;;;;;;27.20;10.80;;;;;;;10.75;61.54;101648.11;106413;1270;24240;-60
2022/03/15 09:25:38;;;;;;;29.60;9.70;;;;;;;10.74;61.52;101647.89;106469;1270;22577;-59
2022/03/15 09:28:10;;;;;;;26.60;8.60;;;;;;;10.78;61.67;101645.12;106444;1270;23989;-60
2022/03/15 09:30:42;;;;;;;26.10;11.60;;;;;;;10.85;61.58;101637.33;106553;1270;22717;-59
2022/03/15 09:33:15;;;;;;;25.80;10.20;;;;;;;10.92;61.42;101640.38;106322;1270;22558;-58
2022/03/15 09:35:46;;;;;;;26.10;10.00;;;;;;;10.98;61.15;101639.55;106424;1270;22548;-59
2022/03/15 09:38:20;;;;;;;30.00;10.70;;;;;;;11.01;60.99;101636.08;106629;1270;22541;-60
2022/03/15 09:40:54;;;;;;;26.10;10.60;;;;;;;11.09;61.00;101633.99;106504;1270;25484;-60
2022/03/15 09:43:29;;;;;;;24.40;9.40;;;;;;;11.17;60.83;101629.55;105885;1268;22789;-59
2022/03/15 09:46:04;;;;;;;24.10;10.10;;;;;;;11.24;60.50;101624.70;106328;1270;25377;-59
2022/03/15 09:48:36;;;;;;;27.70;9.30;;;;;;;11.29;60.32;101622.13;106072;1270;22565;-61
2022/03/15 09:51:12;;;;;;;32.20;10.70;;;;;;;11.35;60.05;101617.30;105898;1270;24238;-58
2022/03/15 09:53:47;;;;;;;23.20;9.20;;;;;;;11.38;59.82;101613.98;105958;1270;25331;-58
2022/03/15 09:56:19;;;;;;;27.40;9.90;;;;;;;11.41;59.76;101613.17;106152;1270;25506;-57
2022/03/15 09:58:51;;;;;;;28.80;9.30;;;;;;;11.47;60.01;101611.93;106284;1270;24265;-59
2022/03/15 10:01:22;;;;;;;24.70;9.00;;;;;;;11.58;59.74;101610.11;106374;1269;22664;-59
2022/03/15 10:03:54;;;;;;;22.50;9.20;;;;;;;11.68;59.52;101605.54;106182;1270;24219;-58
2022/03/15 10:06:25;;;;;;;26.40;10.20;;;;;;;11.77;59.45;101602.58;106474;1268;24278;-58
2022/03/15 10:08:58;;;;;;;28.70;11.30;;;;;;;11.81;59.15;101598.94;106228;1270;25377;-58
2022/03/15 10:11:30;;;;;;;27.90;8.80;;;;;;;11.81;58.72;101592.77;105919;1271;22548;-59
2022/03/15 10:14:02;;;;;;;27.70;10.30;;;;;;;11.85;58.60;101590.76;106128;1270;22528;-60
2022/03/15 10:16:35;;;;;;;26.40;10.80;;;;;;;11.89;58.54;101591.69;106048;1268;22542;-59
2022/03/15 10:19:08;;;;;;;25.60;9.50;;;;;;;11.92;58.74;101588.17;106015;1270;22528;-59
2022/03/15 10:21:46;;;;;;;27.10;10.40;;;;;;;12.01;58.38;101584.19;106202;1270;24248;-60
2022/03/15 10:24:20;;;;;;;24.30;9.00;;;;;;;12.05;57.89;101579.85;106168;1270;25315;-59
2022/03/15 10:26:54;;;;;;;24.40;9.10;;;;;;;12.03;57.53;101575.71;106069;1270;25328;-59
2022/03/15 10:29:28;;;;;;;25.30;9.80;;;;;;;12.06;57.92;101566.80;106164;1270;22525;-59
2022/03/15 10:32:00;;;;;;;23.00;9.30;;;;;;;12.21;57.90;101563.52;106347;1269;26737;-58
2022/03/15 10:34:31;;;;;;;26.90;9.50;;;;;;;12.33;57.88;101557.05;106191;1270;24613;-59
2022/03/15 10:37:04;;;;;;;22.30;9.60;;;;;;;12.45;57.57;101556.23;106205;1270;26231;-59
2022/03/15 10:39:36;;;;;;;25.00;8.60;;;;;;;12.56;57.40;101553.02;105987;1269;25845;-59
2022/03/15 10:42:09;;;;;;;24.50;9.00;;;;;;;12.61;57.25;101551.42;106208;1270;24309;-59
2022/03/15 10:44:41;;;;;;;22.70;8.80;;;;;;;12.68;56.94;101549.88;106035;1270;25536;-60
2022/03/15 10:47:15;;;;;;;25.10;9.90;;;;;;;12.74;56.30;101547.54;106139;1270;22537;-60
2022/03/15 10:49:52;;;;;;;22.50;8.60;;;;;;;12.77;56.10;101542.30;106112;1270;24383;-59
2022/03/15 10:52:34;;;;;;;22.70;8.70;;;;;;;12.79;55.90;101539.80;106151;1270;26280;-59
2022/03/15 10:55:18;;;;;;;22.90;7.00;;;;;;;12.92;55.92;101535.20;106035;1270;23021;-59
2022/03/15 10:57:55;;;;;;;20.40;7.20;;;;;;;13.07;55.60;101535.52;106125;1270;22603;-61
2022/03/15 11:00:29;;;;;;;21.00;8.10;;;;;;;13.22;55.18;101532.27;106096;1270;25258;-59
2022/03/15 11:03:01;;;;;;;19.30;6.40;;;;;;;13.32;54.78;101529.30;106109;1270;22608;-60
2022/03/15 11:05:34;;;;;;;17.20;6.20;;;;;;;13.40;53.70;101530.15;106483;1269;22529;-58
2022/03/15 11:08:10;;;;;;;22.00;6.80;;;;;;;13.44;53.84;101526.04;106273;1270;22534;-59
2022/03/15 11:10:47;;;;;;;22.70;6.60;;;;;;;13.52;53.82;101519.83;106048;1270;22568;-60
2022/03/15 11:13:18;;;;;;;19.80;5.40;;;;;;;13.59;53.55;101518.73;105987;1270;26571;-59
2022/03/15 11:15:53;;;;;;;19.30;7.20;;;;;;;13.62;53.38;101517.05;106133;1269;23589;-61
2022/03/15 11:18:26;;;;;;;17.50;6.20;;;;;;;13.69;53.23;101516.29;105871;1270;22782;-60
2022/03/15 11:21:00;;;;;;;19.00;7.10;;;;;;;13.74;52.80;101511.30;105995;1270;25326;-60
2022/03/15 11:23:39;;;;;;;19.90;7.10;;;;;;;13.71;52.42;101509.83;106177;1270;24447;-59
2022/03/15 11:26:12;;;;;;;17.20;5.60;;;;;;;13.67;52.43;101505.47;106044;1269;25204;-59
2022/03/15 11:28:48;;;;;;;20.90;7.30;;;;;;;13.65;52.40;101499.13;106114;1270;22539;-59
2022/03/15 11:31:21;;;;;;;19.40;7.00;;;;;;;13.71;52.48;101498.91;106020;1270;22530;-60
2022/03/15 11:33:55;;;;;;;21.10;7.90;;;;;;;13.77;52.06;101499.71;106309;1270;24213;-60
2022/03/15 11:36:28;;;;;;;20.20;7.70;;;;;;;13.72;51.53;101492.06;106029;1270;22550;-59